Terminal Aerodrome Forecast
Issued by NWS Jackson, MS

Current Version | Previous Version | Text Only | Print | Product List | Glossary On
Versions: 1 2 3 4 5 6 7 8 9 10 11 12 13 14 15 16 17 18 19 20 21 22 23 24 25
000
FTUS44 KJAN 072333
TAFMEI
TAF
KMEI 072333Z 0800/0824 19008KT P6SM VCSH SCT040
     FM080200 19006KT P6SM FEW050 SCT250
     FM081100 00000KT 5SM BR BKN012
     FM081400 20008KT P6SM SCT020=

USA.gov is the U.S. government's official web portal to all federal, state and local government web resources and services.